sensor_id;sensor_type;location;lat;lon;timestamp;P1;durP1;ratioP1;P2;durP2;ratioP2
18364;SDS011;9309;52.126;11.616;2024-03-02T00:01:30;67.07;;;23.90;;
18364;SDS011;9309;52.126;11.616;2024-03-02T00:03:59;69.10;;;24.07;;
18364;SDS011;9309;52.126;11.616;2024-03-02T00:06:25;68.13;;;24.40;;
18364;SDS011;9309;52.126;11.616;2024-03-02T00:08:57;66.83;;;24.50;;
18364;SDS011;9309;52.126;11.616;2024-03-02T00:11:24;75.33;;;25.27;;
18364;SDS011;9309;52.126;11.616;2024-03-02T00:13:52;71.80;;;25.43;;
18364;SDS011;9309;52.126;11.616;2024-03-02T00:16:19;71.23;;;25.73;;
18364;SDS011;9309;52.126;11.616;2024-03-02T00:18:46;70.43;;;24.27;;
18364;SDS011;9309;52.126;11.616;2024-03-02T00:21:14;72.77;;;24.03;;
18364;SDS011;9309;52.126;11.616;2024-03-02T00:23:43;63.77;;;23.80;;
18364;SDS011;9309;52.126;11.616;2024-03-02T00:26:10;69.63;;;24.10;;
18364;SDS011;9309;52.126;11.616;2024-03-02T00:28:38;70.30;;;25.80;;
18364;SDS011;9309;52.126;11.616;2024-03-02T00:31:07;77.77;;;25.63;;
18364;SDS011;9309;52.126;11.616;2024-03-02T00:33:35;72.23;;;24.57;;
18364;SDS011;9309;52.126;11.616;2024-03-02T00:36:03;74.50;;;24.00;;
18364;SDS011;9309;52.126;11.616;2024-03-02T00:38:33;69.87;;;24.57;;
18364;SDS011;9309;52.126;11.616;2024-03-02T00:41:03;71.40;;;25.40;;
18364;SDS011;9309;52.126;11.616;2024-03-02T00:43:41;70.37;;;24.23;;
18364;SDS011;9309;52.126;11.616;2024-03-02T00:46:09;72.00;;;25.50;;
18364;SDS011;9309;52.126;11.616;2024-03-02T00:48:44;71.07;;;25.30;;
18364;SDS011;9309;52.126;11.616;2024-03-02T00:51:16;77.33;;;24.97;;
18364;SDS011;9309;52.126;11.616;2024-03-02T00:53:44;71.70;;;26.33;;
18364;SDS011;9309;52.126;11.616;2024-03-02T00:56:11;80.60;;;25.13;;
18364;SDS011;9309;52.126;11.616;2024-03-02T00:58:38;69.43;;;24.73;;
18364;SDS011;9309;52.126;11.616;2024-03-02T05:01:31;72.33;;;25.67;;
18364;SDS011;9309;52.126;11.616;2024-03-02T05:03:58;64.77;;;26.27;;
18364;SDS011;9309;52.126;11.616;2024-03-02T05:06:25;78.93;;;25.83;;
18364;SDS011;9309;52.126;11.616;2024-03-02T05:08:51;71.33;;;25.60;;
18364;SDS011;9309;52.126;11.616;2024-03-02T05:11:19;72.70;;;25.43;;
18364;SDS011;9309;52.126;11.616;2024-03-02T05:14:03;70.83;;;24.30;;
18364;SDS011;9309;52.126;11.616;2024-03-02T05:16:32;72.30;;;26.50;;
18364;SDS011;9309;52.126;11.616;2024-03-02T05:18:59;69.87;;;26.13;;
18364;SDS011;9309;52.126;11.616;2024-03-02T05:21:25;65.17;;;26.20;;
18364;SDS011;9309;52.126;11.616;2024-03-02T05:23:52;80.37;;;28.00;;
18364;SDS011;9309;52.126;11.616;2024-03-02T05:26:20;72.20;;;25.23;;
18364;SDS011;9309;52.126;11.616;2024-03-02T05:28:46;64.63;;;25.20;;
18364;SDS011;9309;52.126;11.616;2024-03-02T05:31:13;74.93;;;26.53;;
18364;SDS011;9309;52.126;11.616;2024-03-02T05:33:41;80.50;;;27.13;;
18364;SDS011;9309;52.126;11.616;2024-03-02T05:36:08;67.47;;;25.73;;
18364;SDS011;9309;52.126;11.616;2024-03-02T05:38:35;76.37;;;25.27;;
18364;SDS011;9309;52.126;11.616;2024-03-02T05:41:02;70.13;;;27.33;;
18364;SDS011;9309;52.126;11.616;2024-03-02T05:43:31;61.60;;;25.20;;
18364;SDS011;9309;52.126;11.616;2024-03-02T05:45:57;66.50;;;24.30;;
18364;SDS011;9309;52.126;11.616;2024-03-02T05:48:24;71.73;;;26.17;;
18364;SDS011;9309;52.126;11.616;2024-03-02T05:50:51;64.33;;;24.17;;
18364;SDS011;9309;52.126;11.616;2024-03-02T05:53:17;59.50;;;23.73;;
18364;SDS011;9309;52.126;11.616;2024-03-02T05:55:44;69.83;;;24.10;;
18364;SDS011;9309;52.126;11.616;2024-03-02T05:58:11;75.03;;;25.63;;
18364;SDS011;9309;52.126;11.616;2024-03-02T06:00:52;83.53;;;25.90;;
18364;SDS011;9309;52.126;11.616;2024-03-02T06:03:19;55.80;;;23.90;;
18364;SDS011;9309;52.126;11.616;2024-03-02T06:05:46;74.47;;;25.70;;
18364;SDS011;9309;52.126;11.616;2024-03-02T06:08:14;60.97;;;25.33;;
18364;SDS011;9309;52.126;11.616;2024-03-02T06:10:41;67.30;;;23.60;;
18364;SDS011;9309;52.126;11.616;2024-03-02T06:13:07;71.57;;;24.23;;
18364;SDS011;9309;52.126;11.616;2024-03-02T06:15:34;57.83;;;22.80;;
18364;SDS011;9309;52.126;11.616;2024-03-02T06:18:02;68.80;;;24.47;;
18364;SDS011;9309;52.126;11.616;2024-03-02T06:20:31;62.03;;;23.27;;
18364;SDS011;9309;52.126;11.616;2024-03-02T06:22:58;67.17;;;25.63;;
18364;SDS011;9309;52.126;11.616;2024-03-02T06:25:24;63.60;;;25.07;;
18364;SDS011;9309;52.126;11.616;2024-03-02T06:27:51;65.07;;;25.10;;
18364;SDS011;9309;52.126;11.616;2024-03-02T06:30:18;67.07;;;23.77;;
18364;SDS011;9309;52.126;11.616;2024-03-02T06:32:44;68.80;;;24.70;;
18364;SDS011;9309;52.126;11.616;2024-03-02T06:35:12;73.43;;;24.57;;
18364;SDS011;9309;52.126;11.616;2024-03-02T06:37:39;66.77;;;24.53;;
18364;SDS011;9309;52.126;11.616;2024-03-02T06:40:06;72.03;;;26.37;;
18364;SDS011;9309;52.126;11.616;2024-03-02T06:42:34;63.83;;;23.73;;
18364;SDS011;9309;52.126;11.616;2024-03-02T06:45:01;64.70;;;24.60;;
18364;SDS011;9309;52.126;11.616;2024-03-02T06:47:28;67.90;;;24.87;;
18364;SDS011;9309;52.126;11.616;2024-03-02T06:49:54;64.47;;;25.10;;
18364;SDS011;9309;52.126;11.616;2024-03-02T06:52:23;61.53;;;24.07;;
18364;SDS011;9309;52.126;11.616;2024-03-02T06:54:50;61.97;;;25.33;;
18364;SDS011;9309;52.126;11.616;2024-03-02T06:57:17;61.40;;;24.80;;
18364;SDS011;9309;52.126;11.616;2024-03-02T06:59:44;64.03;;;23.43;;
18364;SDS011;9309;52.126;11.616;2024-03-02T07:02:11;64.70;;;24.47;;
18364;SDS011;9309;52.126;11.616;2024-03-02T07:04:38;67.37;;;25.20;;
18364;SDS011;9309;52.126;11.616;2024-03-02T07:07:05;66.27;;;24.67;;
18364;SDS011;9309;52.126;11.616;2024-03-02T07:09:33;68.63;;;26.17;;
18364;SDS011;9309;52.126;11.616;2024-03-02T07:12:00;60.97;;;23.60;;
18364;SDS011;9309;52.126;11.616;2024-03-02T07:14:27;61.67;;;23.27;;
18364;SDS011;9309;52.126;11.616;2024-03-02T07:17:20;69.60;;;24.30;;
18364;SDS011;9309;52.126;11.616;2024-03-02T07:19:47;58.67;;;22.23;;
18364;SDS011;9309;52.126;11.616;2024-03-02T07:22:13;58.03;;;23.83;;
18364;SDS011;9309;52.126;11.616;2024-03-02T07:24:41;59.77;;;23.97;;
18364;SDS011;9309;52.126;11.616;2024-03-02T07:27:08;60.57;;;24.80;;
18364;SDS011;9309;52.126;11.616;2024-03-02T07:29:35;49.97;;;21.80;;
18364;SDS011;9309;52.126;11.616;2024-03-02T07:32:02;58.23;;;23.57;;
18364;SDS011;9309;52.126;11.616;2024-03-02T07:34:29;56.00;;;22.07;;
18364;SDS011;9309;52.126;11.616;2024-03-02T07:36:56;58.00;;;22.50;;
18364;SDS011;9309;52.126;11.616;2024-03-02T07:39:23;60.60;;;23.00;;
18364;SDS011;9309;52.126;11.616;2024-03-02T07:41:51;58.50;;;22.67;;
18364;SDS011;9309;52.126;11.616;2024-03-02T07:44:18;55.93;;;22.73;;
18364;SDS011;9309;52.126;11.616;2024-03-02T07:46:45;58.50;;;22.97;;
18364;SDS011;9309;52.126;11.616;2024-03-02T07:49:12;53.73;;;22.83;;
18364;SDS011;9309;52.126;11.616;2024-03-02T07:51:39;60.47;;;21.50;;
18364;SDS011;9309;52.126;11.616;2024-03-02T07:54:06;60.03;;;22.27;;
18364;SDS011;9309;52.126;11.616;2024-03-02T07:56:32;52.93;;;20.87;;
18364;SDS011;9309;52.126;11.616;2024-03-02T07:59:00;52.87;;;21.60;;
18364;SDS011;9309;52.126;11.616;2024-03-02T08:01:27;51.87;;;21.83;;
18364;SDS011;9309;52.126;11.616;2024-03-02T08:03:54;56.27;;;22.63;;
18364;SDS011;9309;52.126;11.616;2024-03-02T08:06:23;52.33;;;21.07;;
18364;SDS011;9309;52.126;11.616;2024-03-02T08:08:52;51.20;;;21.27;;
18364;SDS011;9309;52.126;11.616;2024-03-02T08:11:19;59.37;;;22.73;;
18364;SDS011;9309;52.126;11.616;2024-03-02T08:13:46;58.73;;;21.70;;
18364;SDS011;9309;52.126;11.616;2024-03-02T08:16:14;59.80;;;22.57;;
18364;SDS011;9309;52.126;11.616;2024-03-02T08:18:41;50.33;;;20.80;;
18364;SDS011;9309;52.126;11.616;2024-03-02T08:21:07;51.57;;;21.43;;
18364;SDS011;9309;52.126;11.616;2024-03-02T08:23:34;51.63;;;22.07;;
18364;SDS011;9309;52.126;11.616;2024-03-02T08:26:01;55.70;;;21.27;;
18364;SDS011;9309;52.126;11.616;2024-03-02T08:28:28;60.13;;;22.27;;
18364;SDS011;9309;52.126;11.616;2024-03-02T08:30:55;44.67;;;19.67;;
18364;SDS011;9309;52.126;11.616;2024-03-02T08:33:23;53.00;;;21.60;;
18364;SDS011;9309;52.126;11.616;2024-03-02T08:35:49;58.37;;;21.10;;
18364;SDS011;9309;52.126;11.616;2024-03-02T08:38:16;50.80;;;20.00;;
18364;SDS011;9309;52.126;11.616;2024-03-02T10:04:00;32.17;;;15.00;;
18364;SDS011;9309;52.126;11.616;2024-03-02T11:15:35;32.57;;;14.00;;
18364;SDS011;9309;52.126;11.616;2024-03-02T11:18:03;30.38;;;14.65;;
18364;SDS011;9309;52.126;11.616;2024-03-02T11:20:33;30.98;;;13.75;;
18364;SDS011;9309;52.126;11.616;2024-03-02T11:23:04;31.02;;;14.00;;
18364;SDS011;9309;52.126;11.616;2024-03-02T11:25:37;26.45;;;13.02;;
18364;SDS011;9309;52.126;11.616;2024-03-02T11:28:05;31.23;;;13.57;;
18364;SDS011;9309;52.126;11.616;2024-03-02T11:30:52;32.90;;;14.32;;
18364;SDS011;9309;52.126;11.616;2024-03-02T11:33:25;31.87;;;14.70;;
18364;SDS011;9309;52.126;11.616;2024-03-02T11:35:56;33.50;;;14.37;;
18364;SDS011;9309;52.126;11.616;2024-03-02T11:38:27;26.30;;;13.30;;
18364;SDS011;9309;52.126;11.616;2024-03-02T11:40:57;37.03;;;14.40;;
18364;SDS011;9309;52.126;11.616;2024-03-02T11:43:27;28.57;;;13.33;;
18364;SDS011;9309;52.126;11.616;2024-03-02T11:45:57;28.33;;;13.30;;
18364;SDS011;9309;52.126;11.616;2024-03-02T11:48:24;30.03;;;13.07;;
18364;SDS011;9309;52.126;11.616;2024-03-02T11:50:51;27.37;;;12.07;;
18364;SDS011;9309;52.126;11.616;2024-03-02T11:53:19;31.30;;;13.33;;
18364;SDS011;9309;52.126;11.616;2024-03-02T11:55:46;25.48;;;12.57;;
18364;SDS011;9309;52.126;11.616;2024-03-02T11:58:16;28.17;;;12.73;;
18364;SDS011;9309;52.126;11.616;2024-03-02T12:00:45;27.33;;;12.35;;
18364;SDS011;9309;52.126;11.616;2024-03-02T12:03:12;25.08;;;11.68;;
18364;SDS011;9309;52.126;11.616;2024-03-02T12:05:39;28.42;;;12.30;;
18364;SDS011;9309;52.126;11.616;2024-03-02T12:08:07;26.83;;;12.80;;
18364;SDS011;9309;52.126;11.616;2024-03-02T12:10:34;27.52;;;12.43;;
18364;SDS011;9309;52.126;11.616;2024-03-02T12:13:02;30.65;;;13.80;;
18364;SDS011;9309;52.126;11.616;2024-03-02T12:15:31;23.80;;;11.82;;
18364;SDS011;9309;52.126;11.616;2024-03-02T12:17:59;29.75;;;13.27;;
18364;SDS011;9309;52.126;11.616;2024-03-02T12:20:27;23.48;;;12.85;;
18364;SDS011;9309;52.126;11.616;2024-03-02T12:22:55;28.10;;;12.32;;
18364;SDS011;9309;52.126;11.616;2024-03-02T12:25:24;28.73;;;13.45;;
18364;SDS011;9309;52.126;11.616;2024-03-02T12:27:51;27.30;;;13.27;;
18364;SDS011;9309;52.126;11.616;2024-03-02T12:30:21;25.80;;;12.32;;
18364;SDS011;9309;52.126;11.616;2024-03-02T12:32:50;26.40;;;12.88;;
18364;SDS011;9309;52.126;11.616;2024-03-02T12:35:17;23.45;;;12.65;;
18364;SDS011;9309;52.126;11.616;2024-03-02T12:37:46;26.33;;;12.10;;
18364;SDS011;9309;52.126;11.616;2024-03-02T12:40:13;23.17;;;11.45;;
18364;SDS011;9309;52.126;11.616;2024-03-02T12:42:43;25.67;;;12.00;;
18364;SDS011;9309;52.126;11.616;2024-03-02T12:45:11;28.17;;;11.75;;
18364;SDS011;9309;52.126;11.616;2024-03-02T12:47:39;26.08;;;12.43;;
18364;SDS011;9309;52.126;11.616;2024-03-02T12:50:09;26.35;;;11.90;;
18364;SDS011;9309;52.126;11.616;2024-03-02T12:52:36;21.38;;;11.65;;
18364;SDS011;9309;52.126;11.616;2024-03-02T12:55:04;24.90;;;11.15;;
18364;SDS011;9309;52.126;11.616;2024-03-02T12:57:32;24.65;;;11.85;;
18364;SDS011;9309;52.126;11.616;2024-03-02T13:00:00;22.48;;;10.88;;
18364;SDS011;9309;52.126;11.616;2024-03-02T13:02:30;20.33;;;10.88;;
18364;SDS011;9309;52.126;11.616;2024-03-02T13:04:57;26.27;;;12.00;;
18364;SDS011;9309;52.126;11.616;2024-03-02T13:07:26;27.75;;;12.07;;
18364;SDS011;9309;52.126;11.616;2024-03-02T13:09:53;23.20;;;12.55;;
18364;SDS011;9309;52.126;11.616;2024-03-02T13:12:21;22.38;;;11.00;;
18364;SDS011;9309;52.126;11.616;2024-03-02T13:14:48;22.67;;;11.38;;
18364;SDS011;9309;52.126;11.616;2024-03-02T13:17:17;19.75;;;11.95;;
18364;SDS011;9309;52.126;11.616;2024-03-02T13:19:50;22.45;;;12.07;;
18364;SDS011;9309;52.126;11.616;2024-03-02T13:22:18;29.17;;;12.27;;
18364;SDS011;9309;52.126;11.616;2024-03-02T13:24:46;20.33;;;11.77;;
18364;SDS011;9309;52.126;11.616;2024-03-02T13:27:13;20.58;;;11.32;;
18364;SDS011;9309;52.126;11.616;2024-03-02T13:29:41;22.60;;;12.35;;
18364;SDS011;9309;52.126;11.616;2024-03-02T13:32:08;22.08;;;11.38;;
18364;SDS011;9309;52.126;11.616;2024-03-02T13:34:35;19.40;;;11.68;;
18364;SDS011;9309;52.126;11.616;2024-03-02T13:37:02;18.67;;;11.13;;
18364;SDS011;9309;52.126;11.616;2024-03-02T13:39:30;21.77;;;11.98;;
18364;SDS011;9309;52.126;11.616;2024-03-02T13:41:59;25.50;;;13.00;;
18364;SDS011;9309;52.126;11.616;2024-03-02T13:44:29;21.02;;;11.15;;
18364;SDS011;9309;52.126;11.616;2024-03-02T13:46:56;22.13;;;11.07;;
18364;SDS011;9309;52.126;11.616;2024-03-02T13:49:23;21.88;;;10.43;;
18364;SDS011;9309;52.126;11.616;2024-03-02T13:51:53;20.95;;;11.32;;
18364;SDS011;9309;52.126;11.616;2024-03-02T13:57:19;18.17;;;9.90;;
18364;SDS011;9309;52.126;11.616;2024-03-02T13:59:46;22.65;;;11.02;;
18364;SDS011;9309;52.126;11.616;2024-03-02T14:02:13;27.20;;;11.02;;
18364;SDS011;9309;52.126;11.616;2024-03-02T14:04:40;20.02;;;10.82;;
18364;SDS011;9309;52.126;11.616;2024-03-02T14:07:07;20.63;;;10.13;;
18364;SDS011;9309;52.126;11.616;2024-03-02T14:09:35;24.65;;;11.23;;
18364;SDS011;9309;52.126;11.616;2024-03-02T14:12:02;22.88;;;10.80;;
18364;SDS011;9309;52.126;11.616;2024-03-02T14:14:32;22.80;;;10.82;;
18364;SDS011;9309;52.126;11.616;2024-03-02T14:16:59;16.83;;;9.00;;
18364;SDS011;9309;52.126;11.616;2024-03-02T14:19:29;17.95;;;9.60;;
18364;SDS011;9309;52.126;11.616;2024-03-02T14:21:56;18.58;;;10.00;;
18364;SDS011;9309;52.126;11.616;2024-03-02T14:24:22;22.40;;;10.68;;
18364;SDS011;9309;52.126;11.616;2024-03-02T14:26:50;18.27;;;10.43;;
18364;SDS011;9309;52.126;11.616;2024-03-02T14:29:17;20.58;;;10.60;;
18364;SDS011;9309;52.126;11.616;2024-03-02T14:31:45;16.70;;;10.25;;
18364;SDS011;9309;52.126;11.616;2024-03-02T14:34:13;19.73;;;10.90;;
18364;SDS011;9309;52.126;11.616;2024-03-02T14:36:40;21.08;;;10.95;;
18364;SDS011;9309;52.126;11.616;2024-03-02T14:39:08;25.38;;;10.40;;
18364;SDS011;9309;52.126;11.616;2024-03-02T14:41:35;16.83;;;9.10;;
18364;SDS011;9309;52.126;11.616;2024-03-02T14:44:02;22.87;;;9.60;;
18364;SDS011;9309;52.126;11.616;2024-03-02T14:46:28;27.07;;;9.97;;
18364;SDS011;9309;52.126;11.616;2024-03-02T14:48:57;18.03;;;10.50;;
18364;SDS011;9309;52.126;11.616;2024-03-02T14:51:24;18.20;;;9.82;;
18364;SDS011;9309;52.126;11.616;2024-03-02T14:53:51;19.30;;;9.43;;
18364;SDS011;9309;52.126;11.616;2024-03-02T14:56:18;18.57;;;10.17;;
18364;SDS011;9309;52.126;11.616;2024-03-02T14:58:45;19.73;;;9.77;;
18364;SDS011;9309;52.126;11.616;2024-03-02T15:01:11;20.50;;;9.80;;
18364;SDS011;9309;52.126;11.616;2024-03-02T15:03:39;18.67;;;10.00;;
18364;SDS011;9309;52.126;11.616;2024-03-02T15:06:07;20.43;;;9.13;;
18364;SDS011;9309;52.126;11.616;2024-03-02T15:08:34;22.10;;;9.77;;
18364;SDS011;9309;52.126;11.616;2024-03-02T15:11:01;15.37;;;9.13;;
18364;SDS011;9309;52.126;11.616;2024-03-02T15:13:28;14.37;;;7.30;;
18364;SDS011;9309;52.126;11.616;2024-03-02T15:15:55;13.83;;;7.73;;
18364;SDS011;9309;52.126;11.616;2024-03-02T15:18:23;15.57;;;7.27;;
18364;SDS011;9309;52.126;11.616;2024-03-02T15:20:50;18.47;;;10.47;;
18364;SDS011;9309;52.126;11.616;2024-03-02T15:23:18;18.20;;;8.13;;
18364;SDS011;9309;52.126;11.616;2024-03-02T15:25:44;15.67;;;8.57;;
18364;SDS011;9309;52.126;11.616;2024-03-02T15:28:11;15.80;;;7.80;;
18364;SDS011;9309;52.126;11.616;2024-03-02T15:30:38;14.97;;;7.57;;
18364;SDS011;9309;52.126;11.616;2024-03-02T15:33:04;15.47;;;9.03;;
18364;SDS011;9309;52.126;11.616;2024-03-02T15:35:31;19.60;;;8.97;;
18364;SDS011;9309;52.126;11.616;2024-03-02T15:37:58;15.03;;;7.40;;
18364;SDS011;9309;52.126;11.616;2024-03-02T15:40:26;17.73;;;7.97;;
18364;SDS011;9309;52.126;11.616;2024-03-02T15:42:53;16.23;;;7.93;;
18364;SDS011;9309;52.126;11.616;2024-03-02T15:45:20;12.27;;;6.23;;
18364;SDS011;9309;52.126;11.616;2024-03-02T15:47:46;12.30;;;6.47;;
18364;SDS011;9309;52.126;11.616;2024-03-02T15:50:13;13.40;;;6.30;;
18364;SDS011;9309;52.126;11.616;2024-03-02T15:52:40;12.67;;;7.73;;
18364;SDS011;9309;52.126;11.616;2024-03-02T15:55:07;14.53;;;6.33;;
18364;SDS011;9309;52.126;11.616;2024-03-02T15:57:35;15.00;;;7.23;;
18364;SDS011;9309;52.126;11.616;2024-03-02T16:00:02;12.83;;;7.27;;
18364;SDS011;9309;52.126;11.616;2024-03-02T16:02:36;14.90;;;7.43;;
18364;SDS011;9309;52.126;11.616;2024-03-02T16:05:03;18.50;;;9.77;;
18364;SDS011;9309;52.126;11.616;2024-03-02T16:07:30;42.87;;;17.87;;
18364;SDS011;9309;52.126;11.616;2024-03-02T16:09:57;57.27;;;20.80;;
18364;SDS011;9309;52.126;11.616;2024-03-02T16:12:28;39.23;;;15.43;;
18364;SDS011;9309;52.126;11.616;2024-03-02T16:14:56;58.60;;;18.03;;
18364;SDS011;9309;52.126;11.616;2024-03-02T16:17:23;47.00;;;18.03;;
18364;SDS011;9309;52.126;11.616;2024-03-02T16:19:49;23.80;;;10.97;;
18364;SDS011;9309;52.126;11.616;2024-03-02T16:22:16;31.63;;;13.33;;
18364;SDS011;9309;52.126;11.616;2024-03-02T16:24:43;37.60;;;15.23;;
18364;SDS011;9309;52.126;11.616;2024-03-02T16:27:10;34.30;;;13.60;;
18364;SDS011;9309;52.126;11.616;2024-03-02T16:29:36;29.50;;;12.83;;
18364;SDS011;9309;52.126;11.616;2024-03-02T16:32:05;23.13;;;10.80;;
18364;SDS011;9309;52.126;11.616;2024-03-02T16:34:32;22.83;;;10.17;;
18364;SDS011;9309;52.126;11.616;2024-03-02T16:36:58;28.77;;;9.17;;
18364;SDS011;9309;52.126;11.616;2024-03-02T16:39:25;18.87;;;8.70;;
18364;SDS011;9309;52.126;11.616;2024-03-02T16:41:52;18.00;;;7.70;;
18364;SDS011;9309;52.126;11.616;2024-03-02T16:44:18;22.67;;;8.17;;
18364;SDS011;9309;52.126;11.616;2024-03-02T16:46:46;19.17;;;7.67;;
18364;SDS011;9309;52.126;11.616;2024-03-02T16:49:14;18.27;;;8.33;;
18364;SDS011;9309;52.126;11.616;2024-03-02T16:51:41;15.43;;;7.80;;
18364;SDS011;9309;52.126;11.616;2024-03-02T16:54:09;16.27;;;8.53;;
18364;SDS011;9309;52.126;11.616;2024-03-02T16:56:39;12.95;;;7.50;;
18364;SDS011;9309;52.126;11.616;2024-03-02T16:59:06;14.17;;;7.57;;
18364;SDS011;9309;52.126;11.616;2024-03-02T17:01:32;12.97;;;7.03;;
18364;SDS011;9309;52.126;11.616;2024-03-02T17:03:59;15.87;;;8.33;;
18364;SDS011;9309;52.126;11.616;2024-03-02T22:17:52;39.77;;;15.87;;
18364;SDS011;9309;52.126;11.616;2024-03-02T22:20:19;38.10;;;17.20;;
18364;SDS011;9309;52.126;11.616;2024-03-02T22:22:46;36.67;;;15.83;;
18364;SDS011;9309;52.126;11.616;2024-03-02T22:25:12;38.47;;;16.07;;
18364;SDS011;9309;52.126;11.616;2024-03-02T22:27:39;37.67;;;17.07;;
18364;SDS011;9309;52.126;11.616;2024-03-02T22:30:06;53.53;;;19.30;;
18364;SDS011;9309;52.126;11.616;2024-03-02T22:32:35;44.43;;;17.43;;
18364;SDS011;9309;52.126;11.616;2024-03-02T22:35:02;40.57;;;18.57;;
18364;SDS011;9309;52.126;11.616;2024-03-02T22:37:29;39.17;;;15.97;;
18364;SDS011;9309;52.126;11.616;2024-03-02T22:39:55;43.97;;;16.97;;
18364;SDS011;9309;52.126;11.616;2024-03-02T22:42:22;37.13;;;15.47;;
18364;SDS011;9309;52.126;11.616;2024-03-02T22:44:49;37.10;;;15.37;;
18364;SDS011;9309;52.126;11.616;2024-03-02T22:47:14;47.83;;;16.90;;
18364;SDS011;9309;52.126;11.616;2024-03-02T22:49:42;42.87;;;15.60;;
18364;SDS011;9309;52.126;11.616;2024-03-02T22:52:09;43.77;;;15.70;;
18364;SDS011;9309;52.126;11.616;2024-03-02T22:54:36;44.10;;;16.63;;
18364;SDS011;9309;52.126;11.616;2024-03-02T22:57:02;41.33;;;16.87;;
18364;SDS011;9309;52.126;11.616;2024-03-02T22:59:29;43.40;;;16.20;;
18364;SDS011;9309;52.126;11.616;2024-03-02T23:01:56;42.17;;;16.80;;
18364;SDS011;9309;52.126;11.616;2024-03-02T23:04:23;42.93;;;17.57;;
18364;SDS011;9309;52.126;11.616;2024-03-02T23:06:50;38.77;;;17.87;;
18364;SDS011;9309;52.126;11.616;2024-03-02T23:09:17;47.67;;;16.50;;
18364;SDS011;9309;52.126;11.616;2024-03-02T23:11:44;40.87;;;15.67;;
18364;SDS011;9309;52.126;11.616;2024-03-02T23:14:10;37.67;;;16.43;;
18364;SDS011;9309;52.126;11.616;2024-03-02T23:16:37;38.27;;;14.90;;
18364;SDS011;9309;52.126;11.616;2024-03-02T23:19:09;37.83;;;16.23;;
18364;SDS011;9309;52.126;11.616;2024-03-02T23:21:36;36.20;;;15.53;;
18364;SDS011;9309;52.126;11.616;2024-03-02T23:24:05;40.00;;;16.23;;
18364;SDS011;9309;52.126;11.616;2024-03-02T23:26:31;45.70;;;16.67;;
18364;SDS011;9309;52.126;11.616;2024-03-02T23:28:58;43.97;;;18.30;;
18364;SDS011;9309;52.126;11.616;2024-03-02T23:31:25;40.87;;;16.87;;
18364;SDS011;9309;52.126;11.616;2024-03-02T23:33:51;43.37;;;15.80;;
18364;SDS011;9309;52.126;11.616;2024-03-02T23:36:19;41.67;;;16.33;;
18364;SDS011;9309;52.126;11.616;2024-03-02T23:38:46;41.33;;;17.27;;
18364;SDS011;9309;52.126;11.616;2024-03-02T23:41:14;44.80;;;17.40;;
18364;SDS011;9309;52.126;11.616;2024-03-02T23:43:41;39.53;;;17.10;;
18364;SDS011;9309;52.126;11.616;2024-03-02T23:46:08;40.93;;;17.63;;
18364;SDS011;9309;52.126;11.616;2024-03-02T23:48:36;44.90;;;18.20;;
18364;SDS011;9309;52.126;11.616;2024-03-02T23:51:03;43.80;;;17.13;;
18364;SDS011;9309;52.126;11.616;2024-03-02T23:53:30;42.40;;;16.77;;
18364;SDS011;9309;52.126;11.616;2024-03-02T23:55:57;53.17;;;17.40;;
18364;SDS011;9309;52.126;11.616;2024-03-02T23:58:36;34.77;;;16.87;;
